createdAt,value
2022-11-08T00:02:33.969Z,31.50
2022-11-08T00:07:55.500Z,29.08
2022-11-08T00:13:16.881Z,29.00
2022-11-08T00:18:22.239Z,22.40
2022-11-08T00:23:26.114Z,24.77
2022-11-08T00:28:30.025Z,27.15
2022-11-08T00:33:35.377Z,28.15
2022-11-08T00:38:42.739Z,24.17
2022-11-08T00:43:46.937Z,23.80
2022-11-08T00:48:52.082Z,19.80
2022-11-08T00:53:55.912Z,25.73
2022-11-08T00:59:00.463Z,23.92
2022-11-08T01:04:06.227Z,22.55
2022-11-08T01:09:10.108Z,29.38
2022-11-08T01:14:15.312Z,24.73
2022-11-08T01:19:20.687Z,23.17
2022-11-08T01:24:24.484Z,24.30
2022-11-08T01:29:28.315Z,23.77
2022-11-08T01:34:33.636Z,22.55
2022-11-08T01:39:37.635Z,21.17
2022-11-08T01:44:59.640Z,22.63
2022-11-08T01:50:08.851Z,23.25
2022-11-08T01:55:18.162Z,26.17
2022-11-08T02:00:22.040Z,21.77
2022-11-08T02:05:29.751Z,25.67
2022-11-08T02:10:36.645Z,21.02
2022-11-08T02:15:41.357Z,21.83
2022-11-08T02:20:55.126Z,21.38
2022-11-08T02:26:00.667Z,23.80
2022-11-08T02:31:04.498Z,23.77
2022-11-08T02:36:10.522Z,23.85
2022-11-08T02:46:19.615Z,23.35
2022-11-08T02:51:23.439Z,19.27
2022-11-08T02:56:28.790Z,23.30
2022-11-08T03:01:32.599Z,22.37
2022-11-08T03:06:36.501Z,21.95
2022-11-08T03:11:41.707Z,22.00
2022-11-08T03:16:45.554Z,24.73
2022-11-08T03:21:49.318Z,20.58
2022-11-08T03:26:54.537Z,21.58
2022-11-08T03:31:58.391Z,25.67
2022-11-08T03:37:02.092Z,27.30
2022-11-08T03:42:08.092Z,24.75
2022-11-08T03:47:11.821Z,18.67
2022-11-08T03:52:15.811Z,22.90
2022-11-08T03:57:20.996Z,19.92
2022-11-08T04:02:27.409Z,23.10
2022-11-08T04:07:34.775Z,21.80
2022-11-08T04:13:01.675Z,21.90
2022-11-08T04:18:23.853Z,24.08
2022-11-08T04:23:28.156Z,26.23
2022-11-08T04:28:35.320Z,21.00
2022-11-08T04:33:39.293Z,22.50
2022-11-08T04:38:45.714Z,21.30
2022-11-08T04:43:56.622Z,24.60
2022-11-08T04:49:02.120Z,25.75
2022-11-08T04:54:07.772Z,21.02
2022-11-08T04:59:12.927Z,27.23
2022-11-08T05:04:16.840Z,26.60
2022-11-08T05:09:20.784Z,22.75
2022-11-08T05:14:25.997Z,25.20
2022-11-08T05:19:46.655Z,27.58
2022-11-08T05:24:52.414Z,22.98
2022-11-08T05:30:00.712Z,26.25
2022-11-08T05:35:08.028Z,31.75
2022-11-08T05:40:15.116Z,24.33
2022-11-08T05:45:24.601Z,24.40
2022-11-08T05:50:29.700Z,31.63
2022-11-08T05:55:41.940Z,26.85
2022-11-08T06:00:47.274Z,27.20
2022-11-08T06:05:51.143Z,25.20
2022-11-08T06:10:55.431Z,22.80
2022-11-08T06:16:04.662Z,27.98
2022-11-08T06:21:13.521Z,25.38
2022-11-08T06:26:19.160Z,26.55
2022-11-08T06:36:31.320Z,24.70
2022-11-08T06:41:38.419Z,28.33
2022-11-08T06:46:44.374Z,29.52
2022-11-08T06:51:50.466Z,33.75
2022-11-08T06:57:00.973Z,37.08
2022-11-08T07:02:11.099Z,35.58
2022-11-08T07:07:16.103Z,32.90
2022-11-08T07:12:22.348Z,37.63
2022-11-08T07:17:32.117Z,33.45
2022-11-08T07:22:40.392Z,32.80
2022-11-08T07:27:45.023Z,32.30
2022-11-08T07:32:51.091Z,28.10
2022-11-08T07:37:57.813Z,28.52
2022-11-08T07:43:12.658Z,30.90
2022-11-08T07:48:18.872Z,58.13
2022-11-08T07:58:29.952Z,54.60
2022-11-08T08:03:36.847Z,42.15
2022-11-08T08:08:44.308Z,34.00
2022-11-08T08:13:48.567Z,27.30
2022-11-08T08:18:59.133Z,31.60
2022-11-08T08:24:06.190Z,35.45
2022-11-08T08:29:14.166Z,35.97
2022-11-08T08:34:39.035Z,34.30
2022-11-08T08:40:08.296Z,31.02
2022-11-08T08:45:36.604Z,33.55
2022-11-08T08:50:55.250Z,27.98
2022-11-08T08:56:05.526Z,34.20
2022-11-08T09:07:38.436Z,36.40
2022-11-08T09:12:55.439Z,31.83
2022-11-08T09:18:00.033Z,29.67
2022-11-08T09:23:05.813Z,26.90
2022-11-08T09:28:10.576Z,29.58
2022-11-08T09:33:14.740Z,28.75
2022-11-08T09:38:20.349Z,36.22
2022-11-08T09:43:39.929Z,29.75
2022-11-08T09:48:46.143Z,30.80
2022-11-08T09:53:55.239Z,28.20
2022-11-08T09:59:03.728Z,35.08
2022-11-08T10:04:13.843Z,27.98
2022-11-08T10:09:38.756Z,41.80
2022-11-08T10:14:56.509Z,29.65
2022-11-08T10:20:13.948Z,28.67
2022-11-08T10:25:24.436Z,23.98
2022-11-08T10:30:35.669Z,29.40
2022-11-08T10:35:44.649Z,22.83
2022-11-08T10:40:59.598Z,22.73
2022-11-08T10:46:04.276Z,20.57
2022-11-08T10:51:09.022Z,21.63
2022-11-08T10:56:14.937Z,21.40
2022-11-08T11:01:21.177Z,20.38
2022-11-08T11:06:30.173Z,18.13
2022-11-08T11:11:39.371Z,20.05
2022-11-08T11:16:55.578Z,20.60
2022-11-08T11:22:04.960Z,19.33
2022-11-08T11:27:21.879Z,21.23
2022-11-08T11:32:34.084Z,21.15
2022-11-08T11:37:44.082Z,17.02
2022-11-08T11:43:02.432Z,20.02
2022-11-08T11:48:15.757Z,18.90
2022-11-08T11:53:24.100Z,22.02
2022-11-08T11:58:57.460Z,23.25
2022-11-08T12:04:33.554Z,18.67
2022-11-08T12:09:49.639Z,21.58
2022-11-08T12:15:05.440Z,19.98
2022-11-08T12:20:31.243Z,22.92
2022-11-08T12:25:44.546Z,21.23
2022-11-08T12:30:58.278Z,20.98
2022-11-08T12:36:15.667Z,21.33
2022-11-08T12:41:33.205Z,17.33
2022-11-08T12:46:49.013Z,14.75
2022-11-08T12:52:13.225Z,23.30
2022-11-08T12:57:22.505Z,19.38
2022-11-08T13:02:31.919Z,17.75
2022-11-08T13:07:42.993Z,21.33
2022-11-08T13:13:01.064Z,18.10
2022-11-08T13:18:34.262Z,19.77
2022-11-08T13:23:38.135Z,19.73
2022-11-08T13:28:44.227Z,24.35
2022-11-08T13:34:12.520Z,18.30
2022-11-08T13:39:32.250Z,17.02
2022-11-08T13:45:12.244Z,17.27
2022-11-08T13:50:48.256Z,26.77
2022-11-08T13:55:56.782Z,26.30
2022-11-08T14:01:01.760Z,19.38
2022-11-08T14:06:17.885Z,16.30
2022-11-08T14:11:42.134Z,19.83
2022-11-08T14:17:00.420Z,21.92
2022-11-08T14:22:13.418Z,18.98
2022-11-08T14:27:34.273Z,20.08
2022-11-08T14:32:38.011Z,20.85
2022-11-08T14:37:45.140Z,17.58
2022-11-08T14:42:50.190Z,20.05
2022-11-08T14:47:55.199Z,22.43
2022-11-08T14:53:27.325Z,19.50
2022-11-08T14:58:31.424Z,19.92
2022-11-08T15:03:35.990Z,22.00
2022-11-08T15:08:48.258Z,22.80
2022-11-08T15:13:53.303Z,19.88
2022-11-08T15:18:57.070Z,24.63
2022-11-08T15:24:17.787Z,26.20
2022-11-08T15:29:25.572Z,24.45
2022-11-08T15:34:37.861Z,27.33
2022-11-08T15:39:43.735Z,29.50
2022-11-08T15:50:15.605Z,25.67
2022-11-08T15:55:23.866Z,24.83
2022-11-08T16:00:31.740Z,28.77
2022-11-08T16:05:35.792Z,24.67
2022-11-08T16:10:44.099Z,27.30
2022-11-08T16:15:48.306Z,28.45
2022-11-08T16:20:52.470Z,32.08
2022-11-08T16:26:01.028Z,35.53
2022-11-08T16:31:06.571Z,33.53
2022-11-08T16:36:15.671Z,29.33
2022-11-08T16:41:21.788Z,35.10
2022-11-08T16:46:25.834Z,30.20
2022-11-08T16:51:31.171Z,32.05
2022-11-08T16:56:36.597Z,33.60
2022-11-08T17:01:41.327Z,30.77
2022-11-08T17:06:45.460Z,34.17
2022-11-08T17:11:51.001Z,40.45
2022-11-08T17:16:55.237Z,36.45
2022-11-08T17:21:59.284Z,36.22
2022-11-08T17:27:04.726Z,34.67
2022-11-08T17:32:09.044Z,29.27
2022-11-08T17:37:13.235Z,33.50
2022-11-08T17:42:18.703Z,32.35
2022-11-08T17:47:34.042Z,33.75
2022-11-08T17:52:38.227Z,31.55
2022-11-08T17:57:43.734Z,36.80
2022-11-08T18:02:47.811Z,34.00
2022-11-08T18:07:51.943Z,42.30
2022-11-08T18:12:58.046Z,33.95
2022-11-08T18:18:02.137Z,31.92
2022-11-08T18:23:06.210Z,36.08
2022-11-08T18:28:11.885Z,31.88
2022-11-08T18:33:19.433Z,30.30
2022-11-08T18:38:23.846Z,31.35
2022-11-08T18:43:29.411Z,35.65
2022-11-08T18:49:19.361Z,35.67
2022-11-08T18:54:52.054Z,31.98
2022-11-08T19:00:01.037Z,29.15
2022-11-08T19:05:05.915Z,27.58
2022-11-08T19:10:10.967Z,32.95
2022-11-08T19:15:16.746Z,33.43
2022-11-08T19:20:21.009Z,32.08
2022-11-08T19:25:25.614Z,39.13
2022-11-08T19:30:30.889Z,31.05
2022-11-08T19:35:36.934Z,33.53
2022-11-08T19:40:41.897Z,29.05
2022-11-08T19:45:53.307Z,33.00
2022-11-08T19:50:57.365Z,33.08
2022-11-08T19:56:02.311Z,29.27
2022-11-08T20:01:12.420Z,30.87
2022-11-08T20:06:18.959Z,25.10
2022-11-08T20:11:24.676Z,28.98
2022-11-08T20:16:32.200Z,29.50
2022-11-08T20:21:38.857Z,27.58
2022-11-08T20:26:43.074Z,26.25
2022-11-08T20:31:53.693Z,26.77
2022-11-08T20:36:59.143Z,29.50
2022-11-08T20:42:03.314Z,26.25
2022-11-08T20:47:08.971Z,25.02
2022-11-08T20:52:13.112Z,24.48
2022-11-08T20:57:17.277Z,25.35
2022-11-08T21:02:22.700Z,27.58
2022-11-08T21:12:51.619Z,34.30
2022-11-08T21:17:57.212Z,24.92
2022-11-08T21:23:01.264Z,27.27
2022-11-08T21:28:05.506Z,21.92
2022-11-08T21:33:11.171Z,24.55
2022-11-08T21:43:24.045Z,21.98
2022-11-08T21:48:29.676Z,25.70
2022-11-08T21:53:33.963Z,24.52
2022-11-08T21:58:38.451Z,21.33
2022-11-08T22:03:44.072Z,21.67
